Terminal Aerodrome Forecast
Issued by NWS

Home | Current Version | Previous Version | Graphics & Text | Print | Product List | Glossary On
Versions: 1 2 3 4 5 6 7 8 9 10 11 12 13 14 15 16 17 18 19 20 21
659
FTUS43 KICT 182340
TAFSLN
TAF
KSLN 182340Z 1900/1924 15009KT P6SM VCTS BKN060CB
      TEMPO 1900/1902 VRB26G35KT 5SM TSRA OVC050CB
     FM190200 16009KT P6SM BKN070
     FM190800 18013KT P6SM SCT050
     FM191500 18017G22KT P6SM SKC
     FM191800 18022G30KT P6SM SKC=

USA.gov is the U.S. government's official web portal to all federal, state and local government web resources and services.